createdAt,value
2017-01-12T00:04:39.663Z,90.05
2017-01-12T00:09:36.782Z,90.52
2017-01-12T00:14:34.334Z,90.90
2017-01-12T00:19:30.458Z,90.71
2017-01-12T00:24:26.957Z,89.48
2017-01-12T00:29:23.502Z,90.24
2017-01-12T00:34:19.759Z,88.53
2017-01-12T00:39:16.456Z,88.43
2017-01-12T00:44:12.950Z,89.10
2017-01-12T00:49:09.076Z,89.67
2017-01-12T00:54:05.714Z,90.67
2017-01-12T00:59:02.133Z,90.90
2017-01-12T01:03:58.510Z,92.76
2017-01-12T01:08:55.168Z,93.04
2017-01-12T01:13:51.723Z,93.13
2017-01-12T01:18:47.900Z,93.99
2017-01-12T01:23:44.331Z,94.32
2017-01-12T01:28:40.622Z,94.13
2017-01-12T01:33:37.813Z,92.99
2017-01-12T01:38:34.129Z,92.85
2017-01-12T01:43:30.742Z,92.28
2017-01-12T01:48:27.193Z,91.80
2017-01-12T01:53:24.128Z,91.33
2017-01-12T01:58:20.845Z,91.24
2017-01-12T02:03:17.390Z,91.42
2017-01-12T02:08:13.616Z,90.76
2017-01-12T02:13:10.050Z,90.86
2017-01-12T02:18:07.384Z,91.42
2017-01-12T02:23:04.083Z,91.57
2017-01-12T02:28:00.054Z,91.95
2017-01-12T02:32:56.821Z,92.33
2017-01-12T02:37:53.053Z,92.33
2017-01-12T02:42:49.355Z,92.33
2017-01-12T02:47:46.558Z,92.52
2017-01-12T02:52:43.011Z,92.80
2017-01-12T02:57:39.423Z,93.46
2017-01-12T03:02:36.410Z,92.80
2017-01-12T03:07:33.064Z,91.66
2017-01-12T03:12:30.298Z,91.57
2017-01-12T03:17:26.974Z,91.95
2017-01-12T03:22:23.189Z,91.95
2017-01-12T03:27:19.908Z,92.99
2017-01-12T03:32:16.305Z,93.65
2017-01-12T03:37:12.641Z,93.84
2017-01-12T03:42:08.951Z,92.52
2017-01-12T03:47:05.444Z,92.33
2017-01-12T03:52:02.255Z,92.33
2017-01-12T03:56:58.750Z,92.52
2017-01-12T04:01:55.298Z,92.99
2017-01-12T04:06:51.733Z,92.52
2017-01-12T04:11:48.799Z,92.23
2017-01-12T04:16:45.053Z,92.42
2017-01-12T04:21:41.392Z,92.18
2017-01-12T04:26:38.037Z,92.47
2017-01-12T04:31:34.757Z,92.47
2017-01-12T04:36:31.361Z,92.90
2017-01-12T04:41:27.345Z,93.13
2017-01-12T04:46:23.936Z,91.99
2017-01-12T04:51:20.372Z,92.38
2017-01-12T04:56:16.763Z,93.04
2017-01-12T05:01:13.802Z,92.28
2017-01-12T05:06:09.957Z,93.04
2017-01-12T05:11:06.317Z,92.94
2017-01-12T05:16:02.895Z,93.13
2017-01-12T05:20:59.638Z,92.57
2017-01-12T05:25:56.185Z,92.76
2017-01-12T05:30:54.428Z,93.04
2017-01-12T05:35:50.668Z,92.47
2017-01-12T05:40:47.887Z,93.23
2017-01-12T05:45:44.254Z,93.89
2017-01-12T05:50:40.895Z,94.13
2017-01-12T05:55:37.334Z,94.13
2017-01-12T06:00:33.943Z,94.04
2017-01-12T06:05:30.343Z,94.08
2017-01-12T06:10:27.010Z,93.89
2017-01-12T06:15:23.495Z,93.99
2017-01-12T06:20:20.091Z,93.61
2017-01-12T06:25:16.622Z,93.51
2017-01-12T06:30:13.828Z,94.27
2017-01-12T06:35:10.525Z,94.37
2017-01-12T06:40:06.864Z,94.84
2017-01-12T06:45:03.275Z,94.74
2017-01-12T06:50:00.694Z,95.41
2017-01-12T06:54:56.877Z,95.17
2017-01-12T06:59:53.150Z,95.07
2017-01-12T07:04:49.544Z,95.45
2017-01-12T07:09:45.872Z,95.93
2017-01-12T07:14:42.149Z,96.03
2017-01-12T07:19:38.814Z,96.50
2017-01-12T07:24:35.164Z,96.59
2017-01-12T07:29:31.565Z,97.45
2017-01-12T07:34:27.928Z,97.73
2017-01-12T07:39:24.291Z,97.64
2017-01-12T07:44:21.038Z,96.87
2017-01-12T07:49:17.870Z,96.31
2017-01-12T07:54:14.481Z,95.74
2017-01-12T07:59:10.769Z,96.12
2017-01-12T08:04:07.046Z,96.78
2017-01-12T08:09:03.048Z,96.78
2017-01-12T08:13:59.597Z,96.78
2017-01-12T08:18:56.528Z,96.78
2017-01-12T08:23:53.241Z,96.22
2017-01-12T08:28:49.551Z,96.50
2017-01-12T08:33:46.143Z,96.22
2017-01-12T08:38:42.588Z,96.26
2017-01-12T08:43:39.067Z,96.17
2017-01-12T08:48:35.491Z,96.50
2017-01-12T08:53:33.101Z,96.97
2017-01-12T08:58:29.868Z,96.22
2017-01-12T09:03:26.390Z,95.41
2017-01-12T09:08:23.640Z,95.50
2017-01-12T09:13:19.959Z,95.69
2017-01-12T09:18:17.419Z,93.70
2017-01-12T09:23:14.084Z,93.27
2017-01-12T09:28:10.677Z,93.27
2017-01-12T09:33:07.528Z,92.90
2017-01-12T09:38:04.440Z,92.33
2017-01-12T09:43:01.664Z,93.18
2017-01-12T09:47:58.344Z,92.23
2017-01-12T09:52:54.640Z,93.08
2017-01-12T09:57:51.338Z,92.04
2017-01-12T10:02:47.841Z,91.94
2017-01-12T10:07:44.313Z,91.94
2017-01-12T10:12:40.880Z,92.04
2017-01-12T10:17:37.342Z,92.23
2017-01-12T10:22:34.112Z,91.66
2017-01-12T10:27:30.678Z,91.85
2017-01-12T10:32:27.037Z,91.85
2017-01-12T10:37:23.722Z,90.47
2017-01-12T10:42:20.246Z,90.85
2017-01-12T10:47:16.750Z,90.47
2017-01-12T10:52:13.111Z,90.85
2017-01-12T10:57:09.444Z,90.76
2017-01-12T11:02:06.415Z,89.47
2017-01-12T11:07:02.985Z,85.91
2017-01-12T11:11:59.816Z,83.95
2017-01-12T11:16:56.823Z,83.00
2017-01-12T11:21:53.537Z,83.67
2017-01-12T11:26:50.146Z,83.62
2017-01-12T11:31:46.675Z,84.48
2017-01-12T11:36:43.115Z,86.53
2017-01-12T11:41:39.667Z,86.91
2017-01-12T11:46:36.053Z,88.34
2017-01-12T11:51:32.131Z,89.62
2017-01-12T11:56:28.769Z,89.09
2017-01-12T12:01:25.910Z,88.67
2017-01-12T12:06:22.323Z,90.19
2017-01-12T12:11:19.523Z,90.00
2017-01-12T12:16:16.097Z,90.38
2017-01-12T12:21:12.473Z,90.00
2017-01-12T12:26:09.647Z,90.09
2017-01-12T12:31:06.097Z,90.19
2017-01-12T12:36:02.679Z,89.24
2017-01-12T12:40:59.197Z,88.29
2017-01-12T12:45:55.950Z,88.10
2017-01-12T12:50:52.647Z,87.10
2017-01-12T12:55:49.153Z,87.05
2017-01-12T13:00:45.676Z,87.10
2017-01-12T13:05:42.314Z,86.58
2017-01-12T13:10:38.901Z,86.91
2017-01-12T13:15:35.459Z,87.10
2017-01-12T13:20:31.987Z,87.29
2017-01-12T13:25:28.314Z,87.15
2017-01-12T13:30:24.680Z,87.34
2017-01-12T13:35:22.404Z,87.72
2017-01-12T13:40:18.976Z,87.24
2017-01-12T13:45:15.446Z,87.72
2017-01-12T13:50:12.096Z,87.72
2017-01-12T13:55:08.679Z,87.82
2017-01-12T14:00:04.987Z,88.20
2017-01-12T14:05:01.500Z,88.39
2017-01-12T14:09:58.113Z,88.67
2017-01-12T14:14:54.609Z,88.67
2017-01-12T14:19:51.061Z,90.09
2017-01-12T14:24:47.402Z,89.81
2017-01-12T14:29:43.794Z,89.81
2017-01-12T14:34:40.405Z,89.76
2017-01-12T14:39:37.098Z,89.81
2017-01-12T14:44:33.568Z,90.62
2017-01-12T14:49:30.031Z,90.43
2017-01-12T14:54:26.564Z,90.71
2017-01-12T14:59:22.789Z,90.62
2017-01-12T15:04:18.919Z,91.28
2017-01-12T15:09:15.253Z,91.28
2017-01-12T15:24:04.282Z,93.27
2017-01-12T15:29:00.917Z,93.18
2017-01-12T15:33:57.579Z,93.37
2017-01-12T15:38:53.834Z,93.27
2017-01-12T15:43:51.046Z,93.18
2017-01-12T15:48:47.051Z,92.61
2017-01-12T15:53:43.813Z,93.18
2017-01-12T15:58:40.191Z,93.27
2017-01-12T16:03:37.474Z,92.42
2017-01-12T16:08:34.167Z,92.23
2017-01-12T16:13:31.313Z,92.33
2017-01-12T16:18:28.082Z,92.14
2017-01-12T16:23:24.596Z,92.42
2017-01-12T16:28:20.858Z,92.52
2017-01-12T16:33:17.241Z,92.52
2017-01-12T16:38:13.729Z,93.27
2017-01-12T16:43:10.361Z,92.52
2017-01-12T16:48:06.833Z,92.99
2017-01-12T16:53:04.876Z,94.42
2017-01-12T16:58:01.090Z,95.03
2017-01-12T17:02:57.512Z,95.46
2017-01-12T17:07:56.442Z,96.64
2017-01-12T17:12:52.692Z,97.21
2017-01-12T17:17:51.218Z,98.25
2017-01-12T17:22:46.946Z,99.11
2017-01-12T17:27:43.480Z,99.39
2017-01-12T17:32:39.723Z,99.99
2017-01-12T17:37:36.519Z,99.99
2017-01-12T17:42:33.654Z,99.99
2017-01-12T17:47:29.764Z,99.99
2017-01-12T17:52:26.122Z,99.99
2017-01-12T17:57:22.420Z,99.99
2017-01-12T18:02:18.897Z,99.99
2017-01-12T18:07:15.242Z,99.99
2017-01-12T18:12:11.732Z,99.99
2017-01-12T18:17:08.243Z,99.99
2017-01-12T18:22:04.696Z,99.99
2017-01-12T18:27:01.804Z,99.99
2017-01-12T18:31:59.344Z,99.99
2017-01-12T18:36:55.543Z,99.99
2017-01-12T18:41:54.099Z,99.99
2017-01-12T18:46:50.007Z,99.99
2017-01-12T18:51:46.455Z,99.99
2017-01-12T18:56:43.090Z,99.99
2017-01-12T19:01:39.269Z,99.99
2017-01-12T19:06:35.640Z,99.99
2017-01-12T19:11:31.879Z,99.99
2017-01-12T19:16:28.275Z,99.99
2017-01-12T19:21:25.037Z,99.99
2017-01-12T19:26:21.235Z,99.99
2017-01-12T19:31:17.795Z,99.99
2017-01-12T19:36:14.102Z,99.99
2017-01-12T19:41:10.603Z,99.99
2017-01-12T19:46:07.036Z,99.99
2017-01-12T19:51:05.753Z,99.99
2017-01-12T19:56:01.699Z,99.99
2017-01-12T20:00:58.457Z,99.99
2017-01-12T20:05:54.915Z,99.99
2017-01-12T20:10:51.291Z,99.99
2017-01-12T20:15:47.812Z,99.99
2017-01-12T20:20:44.708Z,99.99
2017-01-12T20:25:41.940Z,99.99
2017-01-12T20:30:38.241Z,99.99
2017-01-12T20:35:34.808Z,99.99
2017-01-12T20:40:30.673Z,99.99
2017-01-12T20:45:27.151Z,99.99
2017-01-12T20:50:23.231Z,99.99
2017-01-12T20:55:19.558Z,99.99
2017-01-12T21:00:15.964Z,99.99
2017-01-12T21:05:12.425Z,99.99
2017-01-12T21:10:09.033Z,99.99
2017-01-12T21:15:05.499Z,99.99
2017-01-12T21:20:02.628Z,99.99
2017-01-12T21:25:01.587Z,99.99
2017-01-12T21:29:57.209Z,99.99
2017-01-12T21:34:53.302Z,99.99
2017-01-12T21:39:49.819Z,99.99
2017-01-12T21:44:46.497Z,99.99
2017-01-12T21:49:42.864Z,99.99
2017-01-12T21:54:39.208Z,99.99
2017-01-12T21:59:38.617Z,99.99
2017-01-12T22:04:34.322Z,99.99
2017-01-12T22:09:30.796Z,99.99
2017-01-12T22:14:27.503Z,99.99
2017-01-12T22:19:23.617Z,99.99
2017-01-12T22:24:20.004Z,99.99
2017-01-12T22:29:16.321Z,99.99
2017-01-12T22:34:13.912Z,99.99
2017-01-12T22:39:10.163Z,99.99
2017-01-12T22:44:06.554Z,99.99
2017-01-12T22:49:03.640Z,99.99
2017-01-12T22:53:59.730Z,99.99
2017-01-12T22:58:56.449Z,99.99
2017-01-12T23:03:53.293Z,99.99
2017-01-12T23:08:49.551Z,99.99
2017-01-12T23:13:46.548Z,99.99
2017-01-12T23:18:42.943Z,99.99
2017-01-12T23:23:39.287Z,99.99
2017-01-12T23:28:36.386Z,99.99
2017-01-12T23:33:32.941Z,99.99
2017-01-12T23:38:30.000Z,99.99
2017-01-12T23:43:26.266Z,99.99
2017-01-12T23:48:22.488Z,99.99
2017-01-12T23:53:18.785Z,99.99
2017-01-12T23:58:15.147Z,99.99
